createdAt,value
2022-09-05T00:01:35.215Z,12.03
2022-09-05T00:04:51.322Z,11.95
2022-09-05T00:07:58.478Z,11.98
2022-09-05T00:10:36.059Z,11.97
2022-09-05T00:13:13.269Z,12.00
2022-09-05T00:16:05.169Z,11.99
2022-09-05T00:23:22.876Z,11.99
2022-09-05T00:24:27.750Z,12.00
2022-09-05T00:24:50.233Z,12.01
2022-09-05T00:28:14.543Z,11.96
2022-09-05T00:31:55.065Z,11.99
2022-09-05T00:34:51.532Z,11.89
2022-09-05T00:37:36.680Z,11.92
2022-09-05T00:40:18.189Z,11.96
2022-09-05T00:43:00.336Z,11.95
2022-09-05T00:45:35.052Z,11.92
2022-09-05T00:48:34.849Z,11.90
2022-09-05T00:51:02.469Z,11.91
2022-09-05T00:53:55.500Z,11.96
2022-09-05T00:56:42.032Z,12.02
2022-09-05T00:59:24.885Z,11.95
2022-09-05T01:02:07.149Z,12.01
2022-09-05T01:04:58.104Z,12.02
2022-09-05T01:08:11.527Z,12.03
2022-09-05T01:11:08.443Z,11.99
2022-09-05T01:13:55.042Z,12.00
2022-09-05T01:16:25.635Z,11.89
2022-09-05T01:19:05.868Z,11.86
2022-09-05T01:21:49.136Z,11.93
2022-09-05T01:24:53.683Z,11.92
2022-09-05T01:27:48.153Z,11.96
2022-09-05T01:30:32.126Z,11.92
2022-09-05T01:33:25.704Z,11.92
2022-09-05T01:36:29.103Z,11.87
2022-09-05T01:40:11.433Z,11.84
2022-09-05T01:42:09.002Z,11.81
2022-09-05T01:45:06.986Z,11.82
2022-09-05T01:47:47.710Z,11.86
2022-09-05T01:50:37.829Z,11.89
2022-09-05T01:53:29.956Z,11.83
2022-09-05T01:56:25.704Z,11.86
2022-09-05T01:59:17.667Z,11.86
2022-09-05T02:02:01.651Z,11.85
2022-09-05T02:04:41.552Z,11.80
2022-09-05T02:07:30.291Z,11.82
2022-09-05T02:10:07.316Z,11.83
2022-09-05T02:13:02.452Z,11.78
2022-09-05T02:15:58.995Z,11.81
2022-09-05T02:19:06.623Z,11.84
2022-09-05T02:21:55.683Z,11.88
2022-09-05T02:24:28.083Z,11.85
2022-09-05T02:27:31.796Z,11.83
2022-09-05T02:30:09.637Z,11.83
2022-09-05T02:32:39.156Z,11.84
2022-09-05T02:35:13.716Z,11.82
2022-09-05T02:42:30.505Z,11.79
2022-09-05T02:45:07.735Z,11.82
2022-09-05T02:45:09.523Z,11.77
2022-09-05T02:47:16.791Z,11.83
2022-09-05T02:52:27.593Z,11.77
2022-09-05T02:57:39.221Z,11.81
2022-09-05T02:57:41.359Z,11.83
2022-09-05T02:59:09.142Z,11.73
2022-09-05T03:01:39.529Z,11.74
2022-09-05T03:04:25.092Z,11.73
2022-09-05T03:07:08.818Z,11.79
2022-09-05T03:09:55.977Z,11.80
2022-09-05T03:12:48.181Z,11.78
2022-09-05T03:15:48.812Z,11.77
2022-09-05T03:18:43.860Z,11.84
2022-09-05T03:21:26.565Z,11.82
2022-09-05T03:24:25.104Z,11.84
2022-09-05T03:27:01.733Z,11.86
2022-09-05T03:29:44.417Z,11.91
2022-09-05T03:32:31.111Z,11.93
2022-09-05T03:35:02.361Z,11.94
2022-09-05T03:37:57.481Z,11.99
2022-09-05T03:41:02.049Z,12.02
2022-09-05T03:43:50.153Z,12.08
2022-09-05T03:46:41.222Z,12.12
2022-09-05T03:53:34.283Z,12.18
2022-09-05T03:57:10.481Z,12.29
2022-09-05T03:57:10.634Z,12.24
2022-09-05T03:59:00.937Z,12.29
2022-09-05T04:02:52.593Z,12.31
2022-09-05T04:08:19.486Z,12.49
2022-09-05T04:08:23.726Z,12.42
2022-09-05T04:10:33.880Z,12.49
2022-09-05T04:13:17.212Z,12.52
2022-09-05T04:16:08.739Z,12.53
2022-09-05T04:19:18.224Z,12.58
2022-09-05T04:21:58.305Z,12.67
2022-09-05T04:24:30.416Z,12.71
2022-09-05T04:27:00.699Z,12.76
2022-09-05T04:29:43.304Z,12.84
2022-09-05T04:32:19.806Z,12.80
2022-09-05T04:35:15.925Z,12.81
2022-09-05T04:38:10.487Z,12.88
2022-09-05T04:40:44.412Z,12.98
2022-09-05T04:43:24.023Z,13.03
2022-09-05T04:45:58.864Z,13.07
2022-09-05T04:48:35.106Z,13.14
2022-09-05T04:51:11.549Z,13.11
2022-09-05T04:54:05.673Z,13.12
2022-09-05T04:56:42.738Z,13.24
2022-09-05T05:05:02.420Z,13.36
2022-09-05T05:06:19.741Z,13.54
2022-09-05T05:06:20.303Z,13.46
2022-09-05T05:08:38.148Z,13.47
2022-09-05T05:17:54.345Z,13.59
2022-09-05T05:18:12.193Z,13.53
2022-09-05T05:18:14.835Z,13.64
2022-09-05T05:20:42.224Z,13.56
2022-09-05T05:23:18.603Z,13.65
2022-09-05T05:25:57.312Z,13.67
2022-09-05T05:28:40.268Z,13.75
2022-09-05T05:31:21.190Z,13.80
2022-09-05T05:33:51.683Z,13.78
2022-09-05T05:36:26.501Z,13.85
2022-09-05T05:39:10.181Z,13.87
2022-09-05T05:41:46.874Z,13.93
2022-09-05T05:44:27.693Z,13.98
2022-09-05T05:47:05.564Z,13.90
2022-09-05T05:49:50.887Z,13.93
2022-09-05T05:52:55.512Z,13.98
2022-09-05T05:55:52.229Z,14.05
2022-09-05T05:58:48.714Z,14.14
2022-09-05T06:01:27.399Z,14.13
2022-09-05T06:04:22.305Z,14.19
2022-09-05T06:07:11.294Z,14.33
2022-09-05T06:14:50.712Z,14.42
2022-09-05T06:15:02.367Z,14.56
2022-09-05T06:16:44.961Z,14.65
2022-09-05T06:19:12.819Z,14.72
2022-09-05T06:22:10.315Z,14.80
2022-09-05T06:25:19.445Z,14.96
2022-09-05T06:28:19.620Z,14.93
2022-09-05T06:31:31.468Z,14.93
2022-09-05T06:34:33.089Z,15.02
2022-09-05T06:37:18.751Z,14.99
2022-09-05T06:40:01.881Z,14.95
2022-09-05T06:42:43.568Z,15.01
2022-09-05T06:45:27.896Z,15.04
2022-09-05T06:48:14.409Z,15.04
2022-09-05T06:51:30.733Z,15.07
2022-09-05T06:54:17.028Z,15.09
2022-09-05T06:57:22.305Z,15.16
2022-09-05T07:00:08.352Z,15.27
2022-09-05T07:02:59.354Z,15.33
2022-09-05T07:05:47.193Z,15.49
2022-09-05T07:08:56.556Z,15.70
2022-09-05T07:11:34.705Z,15.81
2022-09-05T07:14:28.126Z,15.93
2022-09-05T07:17:20.432Z,16.01
2022-09-05T07:20:13.530Z,16.11
2022-09-05T07:23:20.344Z,16.09
2022-09-05T07:25:59.385Z,16.29
2022-09-05T07:28:30.300Z,16.42
2022-09-05T07:31:07.945Z,16.50
2022-09-05T07:33:39.545Z,16.53
2022-09-05T07:36:12.301Z,16.68
2022-09-05T07:38:49.000Z,16.82
2022-09-05T07:41:28.487Z,17.05
2022-09-05T07:44:02.979Z,17.23
2022-09-05T07:46:35.916Z,17.30
2022-09-05T07:49:31.102Z,17.46
2022-09-05T07:56:54.606Z,17.65
2022-09-05T07:57:04.919Z,17.82
2022-09-05T07:57:51.943Z,17.81
2022-09-05T08:00:29.537Z,17.86
2022-09-05T08:03:01.209Z,17.94
2022-09-05T08:05:39.638Z,17.82
2022-09-05T08:08:14.489Z,17.95
2022-09-05T08:11:23.171Z,17.96
2022-09-05T08:13:40.691Z,18.09
2022-09-05T08:16:14.208Z,18.09
2022-09-05T08:18:52.630Z,18.19
2022-09-05T08:21:33.924Z,18.27
2022-09-05T08:24:14.269Z,18.34
2022-09-05T08:27:01.366Z,18.26
2022-09-05T08:29:38.412Z,18.14
2022-09-05T08:32:35.464Z,18.24
2022-09-05T08:35:17.332Z,18.35
2022-09-05T08:37:48.153Z,18.42
2022-09-05T08:40:22.081Z,18.53
2022-09-05T08:46:37.682Z,18.63
2022-09-05T08:46:45.882Z,18.67
2022-09-05T08:49:38.598Z,18.76
2022-09-05T08:52:32.498Z,18.87
2022-09-05T08:55:18.531Z,18.99
2022-09-05T08:57:46.709Z,19.03
2022-09-05T09:00:20.301Z,19.01
2022-09-05T09:03:13.742Z,18.93
2022-09-05T09:06:13.947Z,18.89
2022-09-05T09:09:05.803Z,19.02
2022-09-05T09:11:44.223Z,19.00
2022-09-05T09:14:47.347Z,19.06
2022-09-05T09:17:46.032Z,19.10
2022-09-05T09:20:45.218Z,19.26
2022-09-05T09:23:51.555Z,19.58
2022-09-05T09:26:34.372Z,19.79
2022-09-05T09:29:07.155Z,20.08
2022-09-05T09:32:01.571Z,20.27
2022-09-05T09:34:29.658Z,20.33
2022-09-05T09:37:49.881Z,20.27
2022-09-05T09:45:28.839Z,20.49
2022-09-05T09:47:56.709Z,20.29
2022-09-05T09:50:58.791Z,20.29
2022-09-05T09:53:46.885Z,20.33
2022-09-05T09:56:52.630Z,20.19
2022-09-05T09:59:35.499Z,20.29
2022-09-05T10:05:32.469Z,20.28
2022-09-05T10:10:34.509Z,20.15
2022-09-05T10:10:58.713Z,20.34
2022-09-05T10:12:09.286Z,20.53
2022-09-05T10:15:05.232Z,20.65
2022-09-05T10:17:50.317Z,20.55
2022-09-05T10:20:56.881Z,20.54
2022-09-05T10:24:08.024Z,20.65
2022-09-05T10:27:21.656Z,20.62
2022-09-05T10:30:06.356Z,20.67
2022-09-05T10:35:05.160Z,20.47
2022-09-05T10:35:37.473Z,20.30
2022-09-05T10:38:18.369Z,20.06
2022-09-05T10:41:20.789Z,20.03
2022-09-05T10:43:50.900Z,19.90
2022-09-05T10:46:50.176Z,19.92
2022-09-05T10:49:30.148Z,20.15
2022-09-05T10:52:22.579Z,20.35
2022-09-05T10:55:22.199Z,20.39
2022-09-05T10:57:57.541Z,20.22
2022-09-05T11:02:23.924Z,20.14
2022-09-05T11:03:30.229Z,20.32
2022-09-05T11:06:08.985Z,20.55
2022-09-05T11:09:06.125Z,20.35
2022-09-05T11:11:50.854Z,20.40
2022-09-05T11:14:35.797Z,20.47
2022-09-05T11:17:12.807Z,20.36
2022-09-05T11:19:50.249Z,20.42
2022-09-05T11:22:22.791Z,20.64
2022-09-05T11:25:02.581Z,20.68
2022-09-05T11:27:45.822Z,20.78
2022-09-05T11:30:29.087Z,20.94
2022-09-05T11:39:46.222Z,20.94
2022-09-05T11:40:06.904Z,20.82
2022-09-05T11:40:08.918Z,21.02
2022-09-05T11:42:24.397Z,20.85
2022-09-05T11:45:13.665Z,20.88
2022-09-05T11:48:12.609Z,20.99
2022-09-05T11:50:49.336Z,20.98
2022-09-05T11:53:53.103Z,20.59
2022-09-05T11:56:52.688Z,20.49
2022-09-05T12:00:30.834Z,20.40
2022-09-05T12:03:00.262Z,20.28
2022-09-05T12:05:48.335Z,20.46
2022-09-05T12:08:35.360Z,20.39
2022-09-05T12:11:38.493Z,20.35
2022-09-05T12:14:32.685Z,20.22
2022-09-05T12:17:34.766Z,20.10
2022-09-05T12:20:07.556Z,20.10
2022-09-05T12:23:24.864Z,20.17
2022-09-05T12:27:40.545Z,20.37
2022-09-05T12:29:29.183Z,20.36
2022-09-05T12:33:09.741Z,20.33
2022-09-05T12:36:06.806Z,20.30
2022-09-05T12:40:46.237Z,20.25
2022-09-05T12:41:40.699Z,20.18
2022-09-05T12:44:42.875Z,20.25
2022-09-05T12:47:17.075Z,20.20
2022-09-05T12:50:15.055Z,20.33
2022-09-05T12:52:51.608Z,20.56
2022-09-05T12:55:28.833Z,20.79
2022-09-05T13:02:58.133Z,21.08
2022-09-05T13:03:09.383Z,21.35
2022-09-05T13:04:17.349Z,21.33
2022-09-05T13:06:54.167Z,21.29
2022-09-05T13:10:26.273Z,21.14
2022-09-05T13:14:56.210Z,21.33
2022-09-05T13:15:29.341Z,21.45
2022-09-05T13:18:12.113Z,21.46
2022-09-05T13:20:51.645Z,21.44
2022-09-05T13:23:23.092Z,21.21
2022-09-05T13:25:58.602Z,21.23
2022-09-05T13:28:35.415Z,21.14
2022-09-05T13:36:59.782Z,20.89
2022-09-05T13:38:00.765Z,20.73
2022-09-05T13:38:16.014Z,20.96
2022-09-05T13:39:59.637Z,21.22
2022-09-05T13:42:32.679Z,21.22
2022-09-05T13:45:01.869Z,21.06
2022-09-05T13:47:51.097Z,21.09
2022-09-05T13:50:24.552Z,21.24
2022-09-05T13:53:04.991Z,21.28
2022-09-05T13:56:00.490Z,21.53
2022-09-05T13:58:56.755Z,21.15
2022-09-05T14:01:44.134Z,20.84
2022-09-05T14:07:47.545Z,20.27
2022-09-05T14:10:31.281Z,19.94
2022-09-05T14:13:04.405Z,19.81
2022-09-05T14:15:52.362Z,19.82
2022-09-05T14:19:02.367Z,19.54
2022-09-05T14:21:33.435Z,19.47
2022-09-05T14:24:12.511Z,19.49
2022-09-05T14:26:48.128Z,19.62
2022-09-05T14:29:20.905Z,19.73
2022-09-05T14:37:36.766Z,19.84
2022-09-05T14:37:53.458Z,19.81
2022-09-05T14:38:15.390Z,19.81
2022-09-05T14:41:07.792Z,19.79
2022-09-05T14:43:57.030Z,19.67
2022-09-05T14:47:02.639Z,19.59
2022-09-05T14:50:21.275Z,19.52
2022-09-05T14:56:51.521Z,19.50
2022-09-05T15:02:40.714Z,19.36
2022-09-05T15:02:52.510Z,19.25
2022-09-05T15:05:11.287Z,19.17
2022-09-05T15:07:48.365Z,19.20
2022-09-05T15:12:16.181Z,19.18
2022-09-05T15:13:10.699Z,19.10
2022-09-05T15:15:42.547Z,19.03
2022-09-05T15:18:12.983Z,19.05
2022-09-05T15:20:44.778Z,19.03
2022-09-05T15:23:26.195Z,18.98
2022-09-05T15:26:07.230Z,19.01
2022-09-05T15:29:13.044Z,19.05
2022-09-05T15:31:42.565Z,18.92
2022-09-05T15:34:19.996Z,18.95
2022-09-05T15:36:48.296Z,18.96
2022-09-05T15:39:21.580Z,18.95
2022-09-05T15:41:50.104Z,18.71
2022-09-05T15:44:27.915Z,18.62
2022-09-05T15:47:05.264Z,18.37
2022-09-05T15:49:43.033Z,18.10
2022-09-05T15:52:16.818Z,17.76
2022-09-05T15:55:15.765Z,17.55
2022-09-05T15:57:54.207Z,17.35
2022-09-05T16:00:34.103Z,17.13
2022-09-05T16:03:46.970Z,17.08
2022-09-05T16:10:27.088Z,16.93
2022-09-05T16:10:45.590Z,16.98
2022-09-05T16:15:35.869Z,16.75
2022-09-05T16:23:14.121Z,16.71
2022-09-05T16:23:26.556Z,16.72
2022-09-05T16:23:40.664Z,16.75
2022-09-05T16:26:32.175Z,16.69
2022-09-05T16:29:06.155Z,16.68
2022-09-05T16:31:53.613Z,16.72
2022-09-05T16:34:49.864Z,16.63
2022-09-05T16:37:35.283Z,16.59
2022-09-05T16:40:27.510Z,16.65
2022-09-05T16:43:16.136Z,16.65
2022-09-05T16:45:52.777Z,16.70
2022-09-05T16:48:26.148Z,16.74
2022-09-05T16:51:15.795Z,16.68
2022-09-05T16:53:59.177Z,16.64
2022-09-05T16:56:38.721Z,16.59
2022-09-05T16:59:28.609Z,16.53
2022-09-05T17:02:07.485Z,16.46
2022-09-05T17:05:04.483Z,16.47
2022-09-05T17:07:51.924Z,16.46
2022-09-05T17:10:24.643Z,16.39
2022-09-05T17:12:56.224Z,16.37
2022-09-05T17:15:29.678Z,16.34
2022-09-05T17:18:19.343Z,16.29
2022-09-05T17:20:56.944Z,16.29
2022-09-05T17:29:16.320Z,16.28
2022-09-05T17:29:33.325Z,16.18
2022-09-05T17:32:55.200Z,16.12
2022-09-05T17:35:34.039Z,16.11
2022-09-05T17:38:13.623Z,16.09
2022-09-05T17:41:23.053Z,16.09
2022-09-05T17:44:26.464Z,16.03
2022-09-05T17:47:15.431Z,16.01
2022-09-05T17:49:45.616Z,15.99
2022-09-05T17:52:19.460Z,15.97
2022-09-05T17:54:52.630Z,15.95
2022-09-05T17:57:40.046Z,15.92
2022-09-05T18:00:58.446Z,15.86
2022-09-05T18:03:38.629Z,15.88
2022-09-05T18:06:27.308Z,15.92
2022-09-05T18:08:56.482Z,15.93
2022-09-05T18:11:26.181Z,15.94
2022-09-05T18:13:57.973Z,15.86
2022-09-05T18:17:35.454Z,15.81
2022-09-05T18:19:45.968Z,15.75
2022-09-05T18:22:28.433Z,15.71
2022-09-05T18:25:28.894Z,15.63
2022-09-05T18:28:22.007Z,15.58
2022-09-05T18:30:50.905Z,15.58
2022-09-05T18:33:29.090Z,15.55
2022-09-05T18:36:18.641Z,15.54
2022-09-05T18:39:29.545Z,15.45
2022-09-05T18:42:05.666Z,15.33
2022-09-05T18:45:03.558Z,15.27
2022-09-05T18:47:51.305Z,15.25
2022-09-05T18:50:32.350Z,15.32
2022-09-05T18:53:10.134Z,15.37
2022-09-05T18:56:13.885Z,15.41
2022-09-05T18:58:51.784Z,15.33
2022-09-05T19:01:28.768Z,15.40
2022-09-05T19:04:01.199Z,15.38
2022-09-05T19:06:34.524Z,15.41
2022-09-05T19:09:09.637Z,15.38
2022-09-05T19:11:53.086Z,15.25
2022-09-05T19:14:50.782Z,15.27
2022-09-05T19:17:27.397Z,15.22
2022-09-05T19:20:32.053Z,15.20
2022-09-05T19:23:11.758Z,15.22
2022-09-05T19:25:43.838Z,15.20
2022-09-05T19:36:44.758Z,15.23
2022-09-05T19:36:56.794Z,15.22
2022-09-05T19:37:14.271Z,15.23
2022-09-05T19:37:29.593Z,15.27
2022-09-05T19:46:17.037Z,15.21
2022-09-05T19:47:38.918Z,15.23
2022-09-05T19:47:52.052Z,15.25
2022-09-05T19:48:34.862Z,15.29
2022-09-05T19:51:16.377Z,15.28
2022-09-05T19:54:04.099Z,15.25
2022-09-05T19:56:43.209Z,15.28
2022-09-05T19:59:23.040Z,15.25
2022-09-05T20:01:53.117Z,15.24
2022-09-05T20:04:21.637Z,15.22
2022-09-05T20:06:50.375Z,15.21
2022-09-05T20:09:23.691Z,15.13
2022-09-05T20:11:58.207Z,15.15
2022-09-05T20:14:31.169Z,15.09
2022-09-05T20:17:18.651Z,15.04
2022-09-05T20:19:46.843Z,14.99
2022-09-05T20:22:48.516Z,14.91
2022-09-05T20:25:36.685Z,14.91
2022-09-05T20:28:10.090Z,14.85
2022-09-05T20:30:43.601Z,14.75
2022-09-05T20:33:24.595Z,14.68
2022-09-05T20:43:08.079Z,14.65
2022-09-05T20:43:15.284Z,14.57
2022-09-05T20:43:21.746Z,14.62
2022-09-05T20:44:48.570Z,14.57
2022-09-05T20:54:09.080Z,14.59
2022-09-05T20:54:16.033Z,14.48
2022-09-05T20:54:20.951Z,14.48
2022-09-05T20:56:17.066Z,14.47
2022-09-05T20:58:48.431Z,14.46
2022-09-05T21:01:22.922Z,14.45
2022-09-05T21:03:59.608Z,14.43
2022-09-05T21:06:34.400Z,14.40
2022-09-05T21:09:15.704Z,14.32
2022-09-05T21:11:50.930Z,14.32
2022-09-05T21:14:20.939Z,14.24
2022-09-05T21:16:57.625Z,14.20
2022-09-05T21:19:30.811Z,14.20
2022-09-05T21:22:43.394Z,14.07
2022-09-05T21:25:20.389Z,14.16
2022-09-05T21:28:08.826Z,14.08
2022-09-05T21:30:40.870Z,14.05
2022-09-05T21:33:18.558Z,13.99
2022-09-05T21:35:51.663Z,13.91
2022-09-05T21:38:32.531Z,13.90
2022-09-05T21:41:01.953Z,13.87
2022-09-05T21:47:38.176Z,13.84
2022-09-05T21:47:43.440Z,13.82
2022-09-05T21:49:09.170Z,13.77
2022-09-05T21:51:37.563Z,13.77
2022-09-05T21:59:16.627Z,13.84
2022-09-05T21:59:25.343Z,13.80
2022-09-05T22:00:04.032Z,13.80
2022-09-05T22:02:49.310Z,13.74
2022-09-05T22:05:17.475Z,13.74
2022-09-05T22:07:48.677Z,13.60
2022-09-05T22:10:16.479Z,13.58
2022-09-05T22:12:44.569Z,13.62
2022-09-05T22:15:26.446Z,13.64
2022-09-05T22:18:16.745Z,13.61
2022-09-05T22:21:26.826Z,13.45
2022-09-05T22:23:41.314Z,13.41
2022-09-05T22:26:09.098Z,13.40
2022-09-05T22:28:38.817Z,13.43
2022-09-05T22:31:07.309Z,13.36
2022-09-05T22:33:36.471Z,13.32
2022-09-05T22:36:05.223Z,13.23
2022-09-05T22:38:33.504Z,13.18
2022-09-05T22:41:01.245Z,13.23
2022-09-05T22:43:34.822Z,13.20
2022-09-05T22:46:03.815Z,13.22
2022-09-05T22:48:32.415Z,13.20
2022-09-05T22:51:00.252Z,13.22
2022-09-05T22:53:27.831Z,13.22
2022-09-05T22:56:03.822Z,13.25
2022-09-05T22:58:38.874Z,13.26
2022-09-05T23:01:07.587Z,13.30
2022-09-05T23:03:35.506Z,13.24
2022-09-05T23:06:05.842Z,13.19
2022-09-05T23:08:35.558Z,13.18
2022-09-05T23:11:08.983Z,13.17
2022-09-05T23:13:37.955Z,13.14
2022-09-05T23:16:06.328Z,13.12
2022-09-05T23:18:37.385Z,13.07
2022-09-05T23:21:07.418Z,12.97
2022-09-05T23:23:39.882Z,12.97
2022-09-05T23:26:10.539Z,12.92
2022-09-05T23:28:43.152Z,12.97
2022-09-05T23:31:12.225Z,13.01
2022-09-05T23:33:42.520Z,12.91
2022-09-05T23:36:15.585Z,12.86
2022-09-05T23:38:44.276Z,12.85
2022-09-05T23:41:14.582Z,12.79
2022-09-05T23:43:42.733Z,12.82
2022-09-05T23:46:10.815Z,12.81
2022-09-05T23:48:39.717Z,12.67
2022-09-05T23:51:09.567Z,12.68
2022-09-05T23:53:38.642Z,12.72
2022-09-05T23:56:08.301Z,12.67
2022-09-05T23:58:37.192Z,12.62
